Time;durP1;ratioP1;P1;durP2;ratioP2;P2;SDS_P1;SDS_P2;PMS_P1;PMS_P2;Temp;Humidity;BMP_temperature;BMP_pressure;BME280_temperature;BME280_humidity;BME280_pressure;Samples;Min_cycle;Max_cycle;Signal;HPM_P1;HPM_P2
2022/06/07 00:02:06;;;;;;;30.77;20.40;;;12.40;99.90;;;;;;5072507;28;20036;-51
2022/06/07 00:04:34;;;;;;;26.77;17.48;;;12.40;99.90;;;;;;5072558;28;20119;-48
2022/06/07 00:06:59;;;;;;;28.08;19.02;;;12.50;99.90;;;;;;5053371;28;20045;-51
2022/06/07 00:09:26;;;;;;;28.10;18.67;;;12.50;99.90;;;;;;5054487;28;20177;-51
2022/06/07 00:11:52;;;;;;;30.80;19.17;;;12.50;99.90;;;;;;5072136;28;20032;-50
2022/06/07 00:14:18;;;;;;;26.67;16.88;;;12.00;99.90;;;;;;5072553;28;20043;-49
2022/06/07 00:16:44;;;;;;;27.23;18.33;;;12.50;99.90;;;;;;5072042;28;20040;-48
2022/06/07 00:19:10;;;;;;;29.98;18.70;;;12.50;99.90;;;;;;5071884;28;20063;-50
2022/06/07 00:21:36;;;;;;;32.35;19.25;;;12.50;99.90;;;;;;5072219;28;20511;-47
2022/06/07 00:24:03;;;;;;;31.35;19.40;;;12.50;99.90;;;;;;5071856;28;20044;-51
2022/06/07 00:26:30;;;;;;;34.40;19.88;;;12.20;99.90;;;;;;5072409;28;20459;-51
2022/06/07 00:28:56;;;;;;;29.17;20.45;;;12.50;99.90;;;;;;5072203;28;20082;-51
2022/06/07 00:31:22;;;;;;;32.22;21.17;;;12.40;99.90;;;;;;5072150;28;20466;-49
2022/06/07 00:33:48;;;;;;;32.72;19.70;;;12.50;99.90;;;;;;5071736;28;20047;-51
2022/06/07 00:36:14;;;;;;;36.08;21.63;;;12.50;99.90;;;;;;5072050;28;20037;-52
2022/06/07 00:38:43;;;;;;;32.13;21.25;;;12.10;99.90;;;;;;5071672;28;21203;-50
2022/06/07 00:41:10;;;;;;;33.45;21.42;;;12.50;99.90;;;;;;5071870;28;20048;-49
2022/06/07 00:43:36;;;;;;;28.92;19.67;;;12.10;99.90;;;;;;5071421;28;20052;-50
2022/06/07 00:46:07;;;;;;;31.33;19.85;;;12.10;99.90;;;;;;5071879;28;20479;-52
2022/06/07 00:48:33;;;;;;;30.65;20.80;;;12.20;99.90;;;;;;5071428;28;20083;-47
2022/06/07 00:51:11;;;;;;;32.10;20.88;;;12.30;99.90;;;;;;5071276;28;20036;-52
2022/06/07 00:53:37;;;;;;;29.10;19.45;;;12.20;99.90;;;;;;5071241;28;20044;-51
2022/06/07 00:56:05;;;;;;;29.50;20.10;;;12.60;99.90;;;;;;5071705;28;20040;-50
2022/06/07 00:58:32;;;;;;;25.38;18.92;;;12.70;99.90;;;;;;5052617;28;20054;-49
2022/06/07 01:00:59;;;;;;;29.70;18.77;;;12.10;99.90;;;;;;5071400;28;20036;-51
2022/06/07 01:03:26;;;;;;;29.55;18.30;;;12.60;99.90;;;;;;5070974;28;20060;-50
2022/06/07 01:05:53;;;;;;;27.75;17.63;;;12.20;99.90;;;;;;5071328;28;20475;-48
2022/06/07 01:11:04;;;;;;;25.63;16.00;;;12.20;99.90;;;;;;5071332;28;20043;-48
2022/06/07 01:13:32;;;;;;;29.40;17.98;;;12.40;99.90;;;;;;5071293;28;21849;-50
2022/06/07 01:16:01;;;;;;;25.80;16.55;;;12.30;99.90;;;;;;5071231;28;20093;-48
2022/06/07 01:18:28;;;;;;;29.52;17.80;;;12.50;99.90;;;;;;5070899;28;20040;-52
2022/06/07 01:21:12;;;;;;;27.63;16.63;;;12.20;99.90;;;;;;5070702;28;20040;-53
2022/06/07 01:23:39;;;;;;;;;;;12.40;99.90;;;;;;5069572;28;20472;-50
2022/06/07 01:26:05;;;;;;;26.13;16.13;;;12.40;99.90;;;;;;5070945;28;19916;-49
2022/06/07 01:28:31;;;;;;;29.65;17.38;;;12.20;99.90;;;;;;5070713;28;20041;-48
2022/06/07 01:30:57;;;;;;;26.20;16.00;;;12.70;99.90;;;;;;5070774;28;20036;-50
2022/06/07 01:33:22;;;;;;;23.15;16.15;;;12.40;99.90;;;;;;5070922;28;20091;-50
2022/06/07 01:35:58;;;;;;;26.92;16.23;;;12.40;99.90;;;;;;5070890;28;20522;-51
2022/06/07 01:38:24;;;;;;;28.95;16.17;;;12.70;99.90;;;;;;5052870;28;20043;-50
2022/06/07 01:43:36;;;;;;;25.17;15.30;;;12.30;99.90;;;;;;5070437;28;20056;-50
2022/06/07 01:46:04;;;;;;;25.33;15.52;;;12.60;99.90;;;;;;5070941;28;20032;-48
2022/06/07 01:48:30;;;;;;;23.90;15.18;;;12.70;99.90;;;;;;5070573;28;20069;-49
2022/06/07 01:51:03;;;;;;;26.58;15.88;;;12.60;99.90;;;;;;5070501;28;20523;-51
2022/06/07 01:53:29;;;;;;;26.42;16.85;;;12.60;99.90;;;;;;5070058;28;20055;-51
2022/06/07 01:56:07;;;;;;;25.58;15.27;;;12.20;99.90;;;;;;5070471;28;20044;-48
2022/06/07 01:58:34;;;;;;;24.73;14.95;;;12.20;99.90;;;;;;5070245;28;20070;-51
2022/06/07 02:01:00;;;;;;;25.65;15.02;;;12.70;99.90;;;;;;5070312;28;20079;-47
2022/06/07 02:03:26;;;;;;;31.23;15.60;;;12.70;99.90;;;;;;5052592;28;20035;-50
2022/06/07 02:05:57;;;;;;;25.10;15.10;;;12.20;99.90;;;;;;5070664;28;20075;-49
2022/06/07 02:08:23;;;;;;;23.88;14.98;;;12.20;99.90;;;;;;5070474;28;20071;-49
2022/06/07 02:10:49;;;;;;;25.88;15.48;;;12.60;99.90;;;;;;5070317;28;20045;-51
2022/06/07 02:13:15;;;;;;;25.45;15.57;;;12.50;99.90;;;;;;5070310;28;20051;-47
2022/06/07 02:15:40;;;;;;;25.80;14.75;;;12.70;99.90;;;;;;5070383;28;20507;-50
2022/06/07 02:18:06;;;;;;;23.90;14.85;;;12.70;99.90;;;;;;5069910;28;20080;-47
2022/06/07 02:20:32;;;;;;;25.33;15.05;;;12.20;99.90;;;;;;5068354;28;20072;-52
2022/06/07 02:22:58;;;;;;;22.92;14.43;;;12.60;99.90;;;;;;5070048;28;20116;-49
2022/06/07 02:25:23;;;;;;;24.75;15.35;;;12.30;99.90;;;;;;5070057;28;20037;-50
2022/06/07 02:27:49;;;;;;;27.45;14.95;;;12.70;99.90;;;;;;5070191;28;20083;-50
2022/06/07 02:30:15;;;;;;;22.98;13.82;;;12.30;99.90;;;;;;5070221;28;20395;-51
2022/06/07 02:32:41;;;;;;;24.77;14.45;;;12.50;99.90;;;;;;5070322;28;20040;-51
2022/06/07 02:35:07;;;;;;;22.73;14.23;;;12.60;99.90;;;;;;5070299;28;20460;-48
2022/06/07 02:37:36;;;;;;;26.48;14.63;;;12.30;99.90;;;;;;5051946;28;20048;-53
2022/06/07 02:40:04;;;;;;;22.73;14.20;;;12.50;99.90;;;;;;5070266;28;20372;-49
2022/06/07 02:42:30;;;;;;;24.58;15.05;;;12.70;99.90;;;;;;5069976;28;20045;-48
2022/06/07 02:44:57;;;;;;;27.10;14.70;;;12.30;99.90;;;;;;5070196;28;20134;-48
2022/06/07 02:47:23;;;;;;;24.67;15.18;;;12.50;99.90;;;;;;5070092;28;20153;-50
2022/06/07 02:49:50;;;;;;;26.52;14.90;;;12.30;99.90;;;;;;5070098;28;20075;-49
2022/06/07 02:52:15;;;;;;;24.90;15.20;;;12.30;99.90;;;;;;5070094;28;20044;-48
2022/06/07 02:54:41;;;;;;;27.27;16.02;;;12.70;99.90;;;;;;5069713;28;20043;-49
2022/06/07 02:57:07;;;;;;;26.25;14.85;;;12.30;99.90;;;;;;5070083;28;20393;-50
2022/06/07 02:59:33;;;;;;;22.38;14.82;;;12.50;99.90;;;;;;5051824;28;20047;-52
2022/06/07 03:01:58;;;;;;;22.95;14.48;;;12.50;99.90;;;;;;5069932;28;20041;-49
2022/06/07 03:04:24;;;;;;;24.52;13.68;;;12.60;99.90;;;;;;5070078;28;20029;-51
2022/06/07 03:06:50;;;;;;;23.52;14.63;;;12.30;99.90;;;;;;5069938;28;20063;-49
2022/06/07 03:09:16;;;;;;;25.63;15.13;;;12.40;99.90;;;;;;5051984;28;20033;-49
2022/06/07 03:11:41;;;;;;;23.80;15.25;;;12.20;99.90;;;;;;5069560;28;20118;-52
2022/06/07 03:14:07;;;;;;;24.52;14.85;;;12.30;99.90;;;;;;5069990;28;20024;-50
2022/06/07 03:16:33;;;;;;;25.70;15.10;;;12.20;99.90;;;;;;5069860;28;20032;-49
2022/06/07 03:18:59;;;;;;;25.45;15.27;;;12.30;99.90;;;;;;5069488;28;20044;-48
2022/06/07 03:21:24;;;;;;;24.67;15.30;;;12.60;99.90;;;;;;5069763;28;20048;-53
2022/06/07 03:23:50;;;;;;;25.67;16.30;;;12.60;99.90;;;;;;5072956;28;20033;-52
2022/06/07 03:26:16;;;;;;;22.10;14.40;;;12.20;99.90;;;;;;5073068;28;20039;-48
2022/06/07 03:28:42;;;;;;;25.83;15.52;;;12.50;99.90;;;;;;5073277;28;20039;-51
2022/06/07 03:31:17;;;;;;;24.52;14.95;;;12.60;99.90;;;;;;5073009;28;20116;-52
2022/06/07 03:33:44;;;;;;;24.00;15.32;;;12.50;99.90;;;;;;5072768;28;20047;-48
2022/06/07 03:36:17;;;;;;;24.17;14.65;;;12.20;99.90;;;;;;5072647;28;20048;-48
2022/06/07 03:38:43;;;;;;;21.90;14.82;;;12.10;99.90;;;;;;5073014;28;20080;-51
2022/06/07 03:41:16;;;;;;;25.67;15.18;;;12.10;99.90;;;;;;5054299;28;20068;-49
2022/06/07 03:43:41;;;;;;;24.30;15.20;;;12.30;99.90;;;;;;5054632;28;20124;-48
2022/06/07 03:46:14;;;;;;;22.02;13.68;;;12.20;99.90;;;;;;5072783;28;20547;-50
2022/06/07 03:48:44;;;;;;;23.27;14.27;;;12.10;99.90;;;;;;5073001;28;20139;-50
2022/06/07 03:51:11;;;;;;;23.50;14.57;;;12.20;99.90;;;;;;5071473;28;20487;-51
2022/06/07 03:53:37;;;;;;;23.10;14.73;;;12.20;99.90;;;;;;5072661;28;20044;-48
2022/06/07 03:56:04;;;;;;;25.65;15.70;;;12.40;99.90;;;;;;5071914;28;20040;-49
2022/06/07 03:58:30;;;;;;;23.77;14.57;;;12.30;99.90;;;;;;5072302;28;20059;-48
2022/06/07 04:00:58;;;;;;;25.10;15.10;;;12.40;99.90;;;;;;5072687;28;20040;-49
2022/06/07 04:03:24;;;;;;;23.63;13.93;;;12.50;99.90;;;;;;5072438;28;20475;-50
2022/06/07 04:05:50;;;;;;;20.30;14.05;;;12.40;99.90;;;;;;5072322;28;20051;-48
2022/06/07 04:08:16;;;;;;;28.90;15.52;;;12.50;99.90;;;;;;5072149;28;20033;-51
2022/06/07 04:10:53;;;;;;;25.08;14.80;;;12.50;99.90;;;;;;5072431;28;20051;-52
2022/06/07 04:13:21;;;;;;;20.88;15.07;;;12.40;99.90;;;;;;5072413;28;20070;-50
2022/06/07 04:15:47;;;;;;;23.98;15.00;;;12.50;99.90;;;;;;5072353;28;20476;-48
2022/06/07 04:18:13;;;;;;;25.75;15.23;;;12.50;99.90;;;;;;5071366;28;20052;-50
2022/06/07 04:20:40;;;;;;;23.45;14.32;;;12.30;99.90;;;;;;5054510;28;20068;-51
2022/06/07 04:23:07;;;;;;;21.77;14.93;;;12.20;99.90;;;;;;5054305;28;20040;-49
2022/06/07 04:25:37;;;;;;;22.58;14.00;;;12.20;99.90;;;;;;5071723;28;20067;-50
2022/06/07 04:28:03;;;;;;;25.58;14.68;;;12.30;99.90;;;;;;5072034;28;20063;-52
2022/06/07 04:30:32;;;;;;;25.63;16.10;;;12.40;99.90;;;;;;5071987;28;20040;-51
2022/06/07 04:32:58;;;;;;;28.77;16.63;;;12.20;99.90;;;;;;5071912;28;20719;-50
2022/06/07 04:35:24;;;;;;;27.98;16.02;;;12.70;99.90;;;;;;5072068;28;20062;-49
2022/06/07 04:37:50;;;;;;;24.17;16.40;;;12.40;99.90;;;;;;5070548;28;20047;-51
2022/06/07 04:40:16;;;;;;;26.95;16.17;;;12.60;99.90;;;;;;5071937;28;20040;-48
2022/06/07 04:42:43;;;;;;;27.20;16.90;;;12.60;99.90;;;;;;5071406;28;20051;-53
2022/06/07 04:45:13;;;;;;;25.48;16.45;;;12.40;99.90;;;;;;5071948;28;20506;-51
2022/06/07 04:47:40;;;;;;;27.17;15.98;;;12.70;99.90;;;;;;5064768;28;20388;-51
2022/06/07 04:50:09;;;;;;;25.02;16.30;;;12.50;99.90;;;;;;5044827;28;20052;-50
2022/06/07 04:52:34;;;;;;;25.52;15.93;;;12.60;99.90;;;;;;5061858;28;20032;-50
2022/06/07 04:55:00;;;;;;;22.80;16.15;;;12.70;99.90;;;;;;5061122;28;20141;-51
2022/06/07 04:57:27;;;;;;;27.42;16.55;;;12.70;99.90;;;;;;5063706;28;20032;-49
2022/06/07 04:59:53;;;;;;;24.38;15.63;;;12.80;99.90;;;;;;5064353;28;20056;-50
2022/06/07 05:02:19;;;;;;;25.63;16.15;;;12.60;99.90;;;;;;5063866;28;20037;-48
2022/06/07 05:04:45;;;;;;;27.52;16.40;;;12.50;99.90;;;;;;5044925;28;20353;-50
2022/06/07 05:07:11;;;;;;;24.75;15.60;;;12.70;99.90;;;;;;5047699;28;20044;-50
2022/06/07 05:09:37;;;;;;;27.25;16.17;;;12.90;99.90;;;;;;5067859;28;20039;-51
2022/06/07 05:12:03;;;;;;;28.83;17.02;;;12.70;99.90;;;;;;5069438;28;20051;-53
2022/06/07 05:14:29;;;;;;;26.17;15.77;;;12.80;99.90;;;;;;5063618;28;20441;-49
2022/06/07 05:16:55;;;;;;;24.90;15.82;;;13.00;99.90;;;;;;5063138;28;20115;-51
2022/06/07 05:19:20;;;;;;;23.48;16.60;;;12.70;99.90;;;;;;5062142;28;20080;-49
2022/06/07 05:21:46;;;;;;;26.40;16.45;;;13.00;99.90;;;;;;5063288;28;20037;-48
2022/06/07 05:24:12;;;;;;;25.58;15.98;;;12.90;99.90;;;;;;5044450;28;20492;-50
2022/06/07 05:26:54;;;;;;;24.55;15.70;;;13.00;99.90;;;;;;5062217;28;20081;-52
2022/06/07 05:29:43;;;;;;;28.67;15.65;;;12.80;99.90;;;;;;5045814;28;20432;-51
2022/06/07 05:32:08;;;;;;;23.88;16.10;;;13.10;99.90;;;;;;5062241;28;20051;-50
2022/06/07 05:34:34;;;;;;;26.80;16.10;;;12.90;99.90;;;;;;5063961;28;20123;-52
2022/06/07 05:37:00;;;;;;;25.05;15.25;;;13.20;99.90;;;;;;5062496;28;20068;-51
2022/06/07 05:39:27;;;;;;;25.92;15.85;;;13.00;99.90;;;;;;5062787;28;20048;-52
2022/06/07 05:41:53;;;;;;;27.65;15.27;;;13.00;99.90;;;;;;5062890;28;20329;-52
2022/06/07 05:44:20;;;;;;;20.63;15.23;;;13.20;99.90;;;;;;5063181;28;20036;-48
2022/06/07 05:46:47;;;;;;;23.23;15.38;;;13.20;99.90;;;;;;5063439;28;20041;-47
2022/06/07 05:49:13;;;;;;;23.88;15.85;;;13.20;99.90;;;;;;5062473;28;20032;-49
2022/06/07 05:51:39;;;;;;;26.48;15.55;;;13.00;99.90;;;;;;5062935;28;20036;-51
2022/06/07 05:54:06;;;;;;;23.23;14.90;;;13.20;99.90;;;;;;5061488;28;20048;-50
2022/06/07 05:56:32;;;;;;;22.48;15.40;;;13.00;99.90;;;;;;5062307;28;20067;-51
2022/06/07 05:58:59;;;;;;;22.65;14.30;;;12.90;99.90;;;;;;5061289;28;20032;-46
2022/06/07 06:01:26;;;;;;;23.77;14.73;;;12.90;99.90;;;;;;5062955;28;20103;-51
2022/06/07 06:03:52;;;;;;;26.75;15.40;;;12.90;99.90;;;;;;5063057;28;20040;-47
2022/06/07 06:06:18;;;;;;;20.42;13.75;;;12.90;99.90;;;;;;5044695;28;20040;-52
2022/06/07 06:11:31;;;;;;;26.65;15.88;;;12.90;99.90;;;;;;5061770;28;20063;-50
2022/06/07 06:13:56;;;;;;;25.50;15.45;;;12.90;99.90;;;;;;5062359;28;20114;-49
2022/06/07 06:16:23;;;;;;;25.13;15.75;;;12.90;99.90;;;;;;5061758;28;20037;-49
2022/06/07 06:18:54;;;;;;;25.38;16.02;;;12.80;99.90;;;;;;5061836;28;20049;-51
2022/06/07 06:21:22;;;;;;;25.45;14.90;;;12.90;99.90;;;;;;5061746;28;20052;-50
2022/06/07 06:23:48;;;;;;;23.92;15.82;;;12.90;99.90;;;;;;5061498;28;20148;-50
2022/06/07 06:26:18;;;;;;;24.98;14.73;;;12.80;99.90;;;;;;5061841;28;20119;-49
2022/06/07 06:28:44;;;;;;;26.00;15.30;;;13.00;99.90;;;;;;5061213;28;20040;-49
2022/06/07 06:31:11;;;;;;;25.02;15.63;;;12.80;99.90;;;;;;5045018;28;20024;-49
2022/06/07 06:33:48;;;;;;;24.42;15.32;;;12.70;99.90;;;;;;5045623;28;20626;-49
2022/06/07 06:36:16;;;;;;;24.33;14.70;;;12.90;99.90;;;;;;5061714;28;20115;-50
2022/06/07 06:38:43;;;;;;;22.33;13.55;;;13.00;99.90;;;;;;5061319;28;20045;-49
2022/06/07 06:41:15;;;;;;;21.85;13.30;;;13.00;99.90;;;;;;5062724;28;20037;-50
2022/06/07 06:43:41;;;;;;;27.23;15.00;;;12.90;99.90;;;;;;5062403;28;20047;-47
2022/06/07 06:46:15;;;;;;;24.05;14.43;;;13.10;99.90;;;;;;5062746;28;20104;-50
2022/06/07 06:48:42;;;;;;;;;;;13.00;99.90;;;;;;5061519;28;20123;-47
2022/06/07 06:51:11;;;;;;;20.65;12.70;;;13.10;99.90;;;;;;5061826;28;19952;-50
2022/06/07 06:53:37;;;;;;;21.50;12.90;;;13.20;99.90;;;;;;5060566;28;20037;-50
2022/06/07 06:56:04;;;;;;;19.30;12.90;;;13.20;99.90;;;;;;5061331;28;20036;-47
2022/06/07 06:58:29;;;;;;;19.90;12.15;;;13.20;99.90;;;;;;5065369;28;20083;-50
2022/06/07 07:01:03;;;;;;;20.33;12.43;;;13.10;99.90;;;;;;5066434;28;20074;-51
2022/06/07 07:03:29;;;;;;;19.30;12.73;;;13.10;99.90;;;;;;5031347;28;20044;-49
2022/06/07 07:05:56;;;;;;;20.27;11.82;;;13.20;99.90;;;;;;5065900;28;20036;-50
2022/06/07 07:08:25;;;;;;;24.73;12.20;;;13.20;99.90;;;;;;5065451;28;20033;-49
2022/06/07 07:11:11;;;;;;;19.85;11.90;;;13.10;99.90;;;;;;5064743;28;20032;-49
2022/06/07 07:13:38;;;;;;;23.90;12.85;;;13.10;99.90;;;;;;5046552;28;20102;-48
2022/06/07 07:16:07;;;;;;;17.73;11.43;;;13.20;99.90;;;;;;5048400;28;20036;-52
2022/06/07 07:18:33;;;;;;;23.02;12.95;;;13.10;99.90;;;;;;5065230;28;20048;-51
2022/06/07 07:21:05;;;;;;;18.48;11.13;;;13.20;99.90;;;;;;5064735;28;20056;-50
2022/06/07 07:23:32;;;;;;;21.40;10.82;;;13.30;99.90;;;;;;5055306;28;20655;-51
2022/06/07 07:26:10;;;;;;;20.10;10.43;;;13.30;99.90;;;;;;5065276;28;20048;-46
2022/06/07 07:28:38;;;;;;;16.50;10.48;;;13.40;99.90;;;;;;5064588;28;20124;-51
2022/06/07 07:31:07;;;;;;;16.55;10.18;;;13.30;99.90;;;;;;5064039;28;20476;-49
2022/06/07 07:33:34;;;;;;;15.80;9.07;;;13.40;99.90;;;;;;5064296;28;20056;-47
2022/06/07 07:36:04;;;;;;;18.15;8.70;;;13.40;99.90;;;;;;5030845;28;20051;-50
2022/06/07 07:38:30;;;;;;;13.75;8.43;;;13.30;99.90;;;;;;5065003;28;20059;-51
2022/06/07 07:40:56;;;;;;;17.85;9.70;;;13.30;99.90;;;;;;5065073;28;20491;-52
2022/06/07 07:43:22;;;;;;;17.63;8.02;;;13.30;99.90;;;;;;5065267;28;20049;-50
2022/06/07 07:45:52;;;;;;;18.88;8.10;;;13.40;99.90;;;;;;5064813;28;20043;-51
2022/06/07 07:48:18;;;;;;;16.83;8.35;;;13.30;99.90;;;;;;5045595;28;20028;-48
2022/06/07 07:50:45;;;;;;;16.63;7.78;;;13.50;99.90;;;;;;5063002;28;20135;-52
2022/06/07 07:53:11;;;;;;;13.88;7.85;;;13.30;99.90;;;;;;5065513;28;20029;-49
2022/06/07 07:55:48;;;;;;;17.38;8.40;;;13.40;99.90;;;;;;5063518;28;20048;-48
2022/06/07 07:58:14;;;;;;;14.40;7.75;;;13.30;99.90;;;;;;5029351;28;20040;-49
2022/06/07 08:00:45;;;;;;;15.55;8.63;;;13.40;99.90;;;;;;5065076;28;20115;-46
2022/06/07 08:03:11;;;;;;;17.52;7.95;;;13.30;99.90;;;;;;5064029;28;20045;-50
2022/06/07 08:05:37;;;;;;;16.60;8.73;;;13.30;99.90;;;;;;5065011;28;20087;-48
2022/06/07 08:08:03;;;;;;;14.35;8.20;;;13.30;99.90;;;;;;5064505;28;20029;-48
2022/06/07 08:10:29;;;;;;;18.73;9.40;;;13.40;99.90;;;;;;5065352;28;20036;-47
2022/06/07 08:13:00;;;;;;;17.33;9.07;;;13.40;99.90;;;;;;5047100;28;20024;-51
2022/06/07 08:15:26;;;;;;;17.40;9.68;;;13.30;99.90;;;;;;5064412;28;20041;-49
2022/06/07 08:17:53;;;;;;;17.77;9.77;;;13.40;99.90;;;;;;5063300;28;20057;-51
2022/06/07 08:20:20;;;;;;;20.48;9.80;;;13.50;99.90;;;;;;5063048;28;20040;-50
2022/06/07 08:22:45;;;;;;;17.38;9.18;;;13.50;99.90;;;;;;5064834;28;20051;-49
2022/06/07 08:25:12;;;;;;;13.90;8.98;;;13.50;99.90;;;;;;5063976;28;20040;-48
2022/06/07 08:27:38;;;;;;;18.38;9.43;;;13.50;99.90;;;;;;5064337;28;20483;-50
2022/06/07 08:30:05;;;;;;;15.63;9.38;;;13.60;99.90;;;;;;5063016;28;20032;-50
2022/06/07 08:32:31;;;;;;;15.20;9.25;;;13.60;99.90;;;;;;5044536;28;20086;-49
2022/06/07 08:37:42;;;;;;;;;;;13.60;99.90;;;;;;5063327;28;20098;-48
2022/06/07 08:40:39;;;;;;;16.50;8.88;;;13.60;99.90;;;;;;5063206;28;19920;-51
2022/06/07 08:43:12;;;;;;;18.42;9.27;;;13.60;99.90;;;;;;5060056;28;20048;-52
2022/06/07 08:45:42;;;;;;;16.27;8.10;;;13.60;99.90;;;;;;5064022;28;20111;-49
2022/06/07 08:48:15;;;;;;;12.00;7.90;;;13.60;99.90;;;;;;5064215;28;20119;-48
2022/06/07 08:50:51;;;;;;;17.42;8.93;;;13.70;99.90;;;;;;5061956;28;20041;-51
2022/06/07 08:53:20;;;;;;;18.45;9.30;;;13.70;99.90;;;;;;5059906;28;20475;-48
2022/06/07 08:55:57;;;;;;;14.18;8.60;;;13.70;99.90;;;;;;5058424;28;20060;-51
2022/06/07 08:58:25;;;;;;;15.77;8.55;;;13.70;99.90;;;;;;5060937;28;20028;-48
2022/06/07 09:00:57;;;;;;;15.05;8.68;;;13.70;99.90;;;;;;5060128;28;20234;-48
2022/06/07 09:03:32;;;;;;;14.25;8.25;;;13.70;99.90;;;;;;5060139;28;20359;-51
2022/06/07 09:06:00;;;;;;;13.43;7.20;;;13.70;99.90;;;;;;5061673;28;20064;-49
2022/06/07 09:08:38;;;;;;;11.85;6.88;;;13.70;99.90;;;;;;5055961;28;20041;-48
2022/06/07 09:13:53;;;;;;;12.45;5.35;;;13.90;99.90;;;;;;5062261;28;20497;-49
2022/06/07 09:16:19;;;;;;;12.20;5.72;;;13.90;99.90;;;;;;5063125;28;20112;-51
2022/06/07 09:18:45;;;;;;;12.10;5.32;;;14.10;99.90;;;;;;5061625;28;20098;-48
2022/06/07 09:21:29;;;;;;;12.95;4.95;;;14.20;99.90;;;;;;5061402;28;20093;-49
2022/06/07 09:23:56;;;;;;;14.00;5.10;;;14.40;99.90;;;;;;5061786;28;20447;-50
2022/06/07 09:26:37;;;;;;;11.77;5.30;;;14.70;99.90;;;;;;5028126;28;20046;-53
2022/06/07 09:29:23;;;;;;;10.48;4.93;;;14.60;99.90;;;;;;5051922;28;20087;-51
2022/06/07 09:31:50;;;;;;;10.65;4.70;;;14.50;99.90;;;;;;5060761;28;20032;-53
2022/06/07 09:34:20;;;;;;;10.18;4.60;;;14.50;99.90;;;;;;5061570;28;20075;-56
2022/06/07 09:36:51;;;;;;;14.05;4.65;;;14.40;99.90;;;;;;5062919;28;20040;-51
2022/06/07 09:39:24;;;;;;;12.38;4.53;;;14.30;99.90;;;;;;5043736;28;20100;-51
2022/06/07 09:41:58;;;;;;;10.05;4.72;;;14.40;99.90;;;;;;5035225;28;20175;-48
2022/06/07 09:44:29;;;;;;;13.70;4.80;;;14.30;99.90;;;;;;5060996;28;20654;-48
2022/06/07 09:47:15;;;;;;;10.38;4.50;;;14.20;99.90;;;;;;5059092;28;20177;-48
2022/06/07 09:49:48;;;;;;;13.65;5.60;;;14.20;99.90;;;;;;5060074;28;20040;-48
2022/06/07 09:52:27;;;;;;;12.90;4.82;;;14.20;99.90;;;;;;5061630;28;20040;-50
2022/06/07 09:55:18;;;;;;;11.55;5.07;;;14.30;99.90;;;;;;5060433;28;20051;-50
2022/06/07 09:57:57;;;;;;;15.40;5.57;;;14.30;99.90;;;;;;5054741;28;20119;-52
2022/06/07 10:00:53;;;;;;;12.95;5.25;;;14.40;99.90;;;;;;5060818;28;20039;-50
2022/06/07 10:03:19;;;;;;;12.38;5.35;;;14.40;99.90;;;;;;5054578;28;20060;-50
2022/06/07 10:06:17;;;;;;;12.45;5.45;;;14.40;99.90;;;;;;5061506;28;20029;-51
2022/06/07 10:09:13;;;;;;;9.20;5.40;;;14.30;99.90;;;;;;5018127;28;20048;-50
2022/06/07 10:11:57;;;;;;;12.10;5.30;;;14.20;99.90;;;;;;5062494;28;20799;-56
2022/06/07 10:14:47;;;;;;;14.38;5.15;;;14.10;99.90;;;;;;5063811;28;20124;-53
2022/06/07 10:17:34;;;;;;;11.27;5.68;;;14.10;99.90;;;;;;5063048;28;20035;-53
2022/06/07 10:20:18;;;;;;;10.55;5.82;;;14.20;99.90;;;;;;5022472;28;20093;-53
2022/06/07 10:23:06;;;;;;;13.57;5.38;;;14.20;99.90;;;;;;5021473;28;20116;-54
2022/06/07 10:25:50;;;;;;;13.93;5.60;;;14.10;99.90;;;;;;5020518;28;20034;-53
2022/06/07 10:28:26;;;;;;;13.93;5.47;;;14.20;99.90;;;;;;5019565;28;20465;-52
2022/06/07 10:31:16;;;;;;;15.10;4.95;;;14.20;99.90;;;;;;5021634;28;20033;-50
2022/06/07 10:33:49;;;;;;;12.85;5.82;;;14.10;99.90;;;;;;5024311;28;20048;-50
2022/06/07 10:36:42;;;;;;;11.38;6.15;;;14.00;99.90;;;;;;5024904;28;20052;-55
2022/06/07 10:39:41;;;;;;;16.52;6.03;;;14.10;99.90;;;;;;5026181;28;20147;-50
2022/06/07 10:42:22;;;;;;;12.27;6.15;;;14.10;99.90;;;;;;5025470;28;20037;-50
2022/06/07 10:45:04;;;;;;;15.98;6.90;;;14.20;99.90;;;;;;5021583;28;20431;-52
2022/06/07 10:47:59;;;;;;;19.08;6.70;;;14.40;99.90;;;;;;5024468;28;20068;-49
2022/06/07 10:50:53;;;;;;;14.50;7.93;;;14.50;99.90;;;;;;5017421;28;20060;-49
2022/06/07 10:53:25;;;;;;;16.70;7.65;;;14.60;99.90;;;;;;5026300;28;20041;-49
2022/06/07 10:56:00;;;;;;;14.43;6.97;;;14.70;99.90;;;;;;5023152;28;20041;-50
2022/06/07 10:58:45;;;;;;;13.40;7.00;;;14.90;99.90;;;;;;5025076;28;20029;-52
2022/06/07 11:01:27;;;;;;;13.80;7.00;;;15.20;99.90;;;;;;5025089;28;20259;-50
2022/06/07 11:04:09;;;;;;;12.68;6.35;;;15.20;99.90;;;;;;5020454;28;20038;-54
2022/06/07 11:09:41;;;;;;;11.57;6.65;;;15.70;99.90;;;;;;5026057;28;20087;-47
2022/06/07 11:12:12;;;;;;;13.32;5.95;;;15.90;99.90;;;;;;5024473;28;20037;-55
2022/06/07 11:14:46;;;;;;;12.25;5.88;;;16.10;99.90;;;;;;5023984;28;20040;-52
2022/06/07 11:17:26;;;;;;;9.73;5.75;;;16.20;99.90;;;;;;5025110;28;20026;-51
2022/06/07 11:19:53;;;;;;;9.45;5.57;;;16.30;99.90;;;;;;5062713;28;20136;-51
2022/06/07 11:22:21;;;;;;;11.60;5.68;;;16.20;99.90;;;;;;5066537;28;20109;-52
2022/06/07 11:25:13;;;;;;;12.38;5.65;;;16.10;99.90;;;;;;5069154;28;20074;-51
2022/06/07 11:27:55;;;;;;;9.15;5.70;;;16.30;99.90;;;;;;5071053;28;20143;-52
2022/06/07 11:30:23;;;;;;;12.75;6.20;;;16.40;99.90;;;;;;5072056;28;20036;-53
2022/06/07 11:32:55;;;;;;;14.57;5.85;;;16.40;99.90;;;;;;5072605;28;20036;-53
2022/06/07 11:35:45;;;;;;;14.23;6.07;;;16.80;99.90;;;;;;5072918;28;20043;-54
2022/06/07 11:38:33;;;;;;;11.88;6.32;;;16.80;99.90;;;;;;5073269;28;20127;-50
2022/06/07 11:41:41;;;;;;;9.68;5.60;;;17.10;99.90;;;;;;5073200;28;20479;-53
2022/06/07 11:44:10;;;;;;;12.15;6.10;;;17.20;99.90;;;;;;5072659;28;20041;-53
2022/06/07 11:46:35;;;;;;;13.05;5.93;;;17.50;99.90;;;;;;5072981;28;20086;-53
2022/06/07 11:49:24;;;;;;;14.80;6.00;;;17.30;99.90;;;;;;5072618;28;20360;-52
2022/06/07 11:52:08;;;;;;;9.68;4.72;;;17.30;99.90;;;;;;5071764;28;20067;-54
2022/06/07 11:54:50;;;;;;;12.68;5.13;;;17.50;99.90;;;;;;5072018;28;20049;-52
2022/06/07 11:57:24;;;;;;;12.13;4.40;;;17.50;99.90;;;;;;5072892;28;20056;-50
2022/06/07 11:59:51;;;;;;;;;;;17.40;99.90;;;;;;5073026;28;20048;-52
2022/06/07 12:02:17;;;;;;;13.25;5.32;;;17.10;99.90;;;;;;5054682;28;20384;-51
2022/06/07 12:04:47;;;;;;;14.40;4.75;;;17.00;99.90;;;;;;5072828;28;20071;-51
2022/06/07 12:07:40;;;;;;;14.95;4.80;;;16.80;99.90;;;;;;5072320;28;20056;-51
2022/06/07 12:10:30;;;;;;;12.15;4.28;;;16.80;99.90;;;;;;5072644;28;20392;-48
2022/06/07 12:12:59;;;;;;;16.23;4.63;;;16.90;99.90;;;;;;5072573;28;20033;-54
2022/06/07 12:15:31;;;;;;;12.35;4.30;;;16.70;99.90;;;;;;5072467;28;20045;-48
2022/06/07 12:18:04;;;;;;;11.00;4.47;;;16.80;99.90;;;;;;5072112;28;20090;-49
2022/06/07 12:20:40;;;;;;;15.02;4.68;;;17.40;99.90;;;;;;5072512;28;20048;-51
2022/06/07 12:23:44;;;;;;;16.13;4.60;;;17.90;99.90;;;;;;5071992;28;20043;-50
2022/06/07 12:26:25;;;;;;;13.38;4.82;;;17.80;99.90;;;;;;5071034;28;20124;-53
2022/06/07 12:29:00;;;;;;;10.85;5.05;;;17.70;99.90;;;;;;5071683;28;20083;-50
2022/06/07 12:31:33;;;;;;;13.35;5.30;;;17.40;99.90;;;;;;5072014;28;20090;-49
2022/06/07 12:34:02;;;;;;;10.82;4.70;;;17.50;99.90;;;;;;5071891;28;20071;-49
2022/06/07 12:36:34;;;;;;;12.10;4.88;;;17.60;99.90;;;;;;5070860;28;20201;-49
2022/06/07 12:39:09;;;;;;;11.43;4.13;;;17.70;99.90;;;;;;5071690;28;20036;-49
2022/06/07 12:41:35;;;;;;;9.93;4.38;;;17.90;99.90;;;;;;5071602;28;20498;-52
2022/06/07 12:44:03;;;;;;;11.10;4.55;;;18.00;99.90;;;;;;5053716;28;20044;-51
2022/06/07 12:46:32;;;;;;;10.10;5.07;;;18.30;99.90;;;;;;5071985;28;20039;-48
2022/06/07 12:48:59;;;;;;;10.35;4.80;;;18.00;99.90;;;;;;5071374;28;20409;-51
2022/06/07 12:51:34;;;;;;;9.82;4.55;;;18.10;99.90;;;;;;5071729;28;20051;-49
2022/06/07 12:54:06;;;;;;;11.32;4.70;;;17.90;99.90;;;;;;5069968;28;20143;-52
2022/06/07 12:56:35;;;;;;;10.63;3.95;;;18.00;99.90;;;;;;5071342;28;20394;-53
2022/06/07 12:59:07;;;;;;;11.50;4.80;;;18.20;99.90;;;;;;5071296;28;20051;-50
2022/06/07 13:01:40;;;;;;;10.98;3.90;;;18.30;99.90;;;;;;5065521;28;20904;-55
2022/06/07 13:04:35;;;;;;;12.30;4.28;;;18.40;99.90;;;;;;5063091;28;20041;-51
2022/06/07 13:07:16;;;;;;;15.43;4.97;;;18.20;99.90;;;;;;5063569;28;20160;-49
2022/06/07 13:09:45;;;;;;;10.75;4.97;;;18.10;99.90;;;;;;5065643;28;20040;-50